Terminal Aerodrome Forecast
Issued by NWS

Current Version | Previous Version | Text Only | Print | Product List | Glossary On
Versions: 1 2 3 4 5 6 7 8 9 10 11 12 13 14 15 16 17 18 19
000
FTUS43 KMQT 300526
TAFSAW
TAF
KSAW 300526Z 3006/3106 36013KT 6SM -SHRA BR OVC006
     FM300800 35011KT P6SM -SHRA OVC012
     FM301000 36011KT P6SM OVC020
     FM301300 35013G21KT P6SM BKN040
     FM301600 36015G22KT P6SM SCT090
     FM310200 36008KT P6SM SKC=

USA.gov is the U.S. government's official web portal to all federal, state and local government web resources and services.